sensor_id;sensor_type;location;lat;lon;timestamp;temperature;humidity
16846;DHT22;8539;53.188;8.696;2024-02-26T00:02:05;2.20;99.90
16846;DHT22;8539;53.188;8.696;2024-02-26T00:04:33;2.10;99.90
16846;DHT22;8539;53.188;8.696;2024-02-26T00:07:01;2.10;99.90
16846;DHT22;8539;53.188;8.696;2024-02-26T00:09:29;2.10;99.90
16846;DHT22;8539;53.188;8.696;2024-02-26T00:11:59;2.10;99.90
16846;DHT22;8539;53.188;8.696;2024-02-26T00:14:29;2.20;99.90
16846;DHT22;8539;53.188;8.696;2024-02-26T00:16:57;2.20;99.90
16846;DHT22;8539;53.188;8.696;2024-02-26T00:19:24;2.20;99.90
16846;DHT22;8539;53.188;8.696;2024-02-26T00:21:52;2.20;99.90
16846;DHT22;8539;53.188;8.696;2024-02-26T00:24:23;2.30;99.90
16846;DHT22;8539;53.188;8.696;2024-02-26T00:26:51;2.30;99.90
16846;DHT22;8539;53.188;8.696;2024-02-26T00:29:22;2.20;99.90
16846;DHT22;8539;53.188;8.696;2024-02-26T00:31:50;2.20;99.90
16846;DHT22;8539;53.188;8.696;2024-02-26T00:34:18;2.20;99.90
16846;DHT22;8539;53.188;8.696;2024-02-26T00:36:47;2.20;99.90
16846;DHT22;8539;53.188;8.696;2024-02-26T00:39:16;2.20;99.90
16846;DHT22;8539;53.188;8.696;2024-02-26T00:41:44;2.20;99.90
16846;DHT22;8539;53.188;8.696;2024-02-26T00:44:12;2.20;99.90
16846;DHT22;8539;53.188;8.696;2024-02-26T00:46:40;2.20;99.90
16846;DHT22;8539;53.188;8.696;2024-02-26T00:49:07;2.20;99.90
16846;DHT22;8539;53.188;8.696;2024-02-26T00:51:34;2.20;99.90
16846;DHT22;8539;53.188;8.696;2024-02-26T00:54:02;2.20;99.90
16846;DHT22;8539;53.188;8.696;2024-02-26T00:56:30;2.20;99.90
16846;DHT22;8539;53.188;8.696;2024-02-26T00:58:58;2.20;99.90
16846;DHT22;8539;53.188;8.696;2024-02-26T01:01:27;2.20;99.90
16846;DHT22;8539;53.188;8.696;2024-02-26T01:03:54;2.10;99.90
16846;DHT22;8539;53.188;8.696;2024-02-26T01:06:21;2.10;99.90
16846;DHT22;8539;53.188;8.696;2024-02-26T01:08:49;2.00;99.90
16846;DHT22;8539;53.188;8.696;2024-02-26T01:11:17;1.90;99.90
16846;DHT22;8539;53.188;8.696;2024-02-26T01:13:44;2.00;99.90
16846;DHT22;8539;53.188;8.696;2024-02-26T01:16:11;1.90;99.90
16846;DHT22;8539;53.188;8.696;2024-02-26T01:18:39;1.80;99.90
16846;DHT22;8539;53.188;8.696;2024-02-26T01:21:08;1.80;99.90
16846;DHT22;8539;53.188;8.696;2024-02-26T01:23:36;1.70;99.90
16846;DHT22;8539;53.188;8.696;2024-02-26T01:26:04;1.70;99.90
16846;DHT22;8539;53.188;8.696;2024-02-26T01:28:32;1.60;99.90
16846;DHT22;8539;53.188;8.696;2024-02-26T01:31:00;1.60;99.90
16846;DHT22;8539;53.188;8.696;2024-02-26T01:33:27;1.50;99.90
16846;DHT22;8539;53.188;8.696;2024-02-26T01:35:54;1.40;99.90
16846;DHT22;8539;53.188;8.696;2024-02-26T01:38:22;1.30;99.90
16846;DHT22;8539;53.188;8.696;2024-02-26T01:40:50;1.30;99.90
16846;DHT22;8539;53.188;8.696;2024-02-26T01:43:17;1.30;99.90
16846;DHT22;8539;53.188;8.696;2024-02-26T01:45:44;1.10;99.90
16846;DHT22;8539;53.188;8.696;2024-02-26T01:48:11;1.10;99.90
16846;DHT22;8539;53.188;8.696;2024-02-26T01:50:40;1.00;99.90
16846;DHT22;8539;53.188;8.696;2024-02-26T01:53:08;1.00;99.90
16846;DHT22;8539;53.188;8.696;2024-02-26T01:55:36;0.90;99.90
16846;DHT22;8539;53.188;8.696;2024-02-26T01:58:05;0.90;99.90
16846;DHT22;8539;53.188;8.696;2024-02-26T02:00:32;0.90;99.90
16846;DHT22;8539;53.188;8.696;2024-02-26T02:03:01;0.90;99.90
16846;DHT22;8539;53.188;8.696;2024-02-26T02:05:29;0.80;99.90
16846;DHT22;8539;53.188;8.696;2024-02-26T02:07:57;0.80;99.90
16846;DHT22;8539;53.188;8.696;2024-02-26T02:10:26;0.80;99.90
16846;DHT22;8539;53.188;8.696;2024-02-26T02:12:53;0.80;99.90
16846;DHT22;8539;53.188;8.696;2024-02-26T02:15:20;0.70;99.90
16846;DHT22;8539;53.188;8.696;2024-02-26T02:17:48;0.70;99.90
16846;DHT22;8539;53.188;8.696;2024-02-26T02:20:17;0.70;99.90
16846;DHT22;8539;53.188;8.696;2024-02-26T02:22:46;0.70;99.90
16846;DHT22;8539;53.188;8.696;2024-02-26T02:25:13;0.70;99.90
16846;DHT22;8539;53.188;8.696;2024-02-26T02:27:41;0.70;99.90
16846;DHT22;8539;53.188;8.696;2024-02-26T02:30:10;0.60;99.90
16846;DHT22;8539;53.188;8.696;2024-02-26T02:32:39;0.60;99.90
16846;DHT22;8539;53.188;8.696;2024-02-26T02:35:08;0.60;99.90
16846;DHT22;8539;53.188;8.696;2024-02-26T02:37:36;0.60;99.90
16846;DHT22;8539;53.188;8.696;2024-02-26T02:40:04;0.60;99.90
16846;DHT22;8539;53.188;8.696;2024-02-26T02:42:32;0.60;99.90
16846;DHT22;8539;53.188;8.696;2024-02-26T02:44:59;0.60;99.90
16846;DHT22;8539;53.188;8.696;2024-02-26T02:47:26;0.50;99.90
16846;DHT22;8539;53.188;8.696;2024-02-26T02:49:53;0.50;99.90
16846;DHT22;8539;53.188;8.696;2024-02-26T02:52:20;0.50;99.90
16846;DHT22;8539;53.188;8.696;2024-02-26T02:54:47;0.60;99.90
16846;DHT22;8539;53.188;8.696;2024-02-26T02:57:14;0.60;99.90
16846;DHT22;8539;53.188;8.696;2024-02-26T02:59:41;0.60;99.90
16846;DHT22;8539;53.188;8.696;2024-02-26T03:02:09;0.60;99.90
16846;DHT22;8539;53.188;8.696;2024-02-26T03:04:36;0.70;99.90
16846;DHT22;8539;53.188;8.696;2024-02-26T03:07:04;0.80;99.90
16846;DHT22;8539;53.188;8.696;2024-02-26T03:09:31;0.80;99.90
16846;DHT22;8539;53.188;8.696;2024-02-26T03:11:59;0.90;99.90
16846;DHT22;8539;53.188;8.696;2024-02-26T03:14:26;1.10;99.90
16846;DHT22;8539;53.188;8.696;2024-02-26T03:16:54;0.90;99.90
16846;DHT22;8539;53.188;8.696;2024-02-26T03:19:22;0.90;99.90
16846;DHT22;8539;53.188;8.696;2024-02-26T03:21:51;0.90;99.90
16846;DHT22;8539;53.188;8.696;2024-02-26T03:24:18;0.90;99.90
16846;DHT22;8539;53.188;8.696;2024-02-26T03:26:45;0.80;99.90
16846;DHT22;8539;53.188;8.696;2024-02-26T03:29:12;0.80;99.90
16846;DHT22;8539;53.188;8.696;2024-02-26T03:31:39;0.90;99.90
16846;DHT22;8539;53.188;8.696;2024-02-26T03:34:06;0.90;99.90
16846;DHT22;8539;53.188;8.696;2024-02-26T03:36:34;1.10;99.90
16846;DHT22;8539;53.188;8.696;2024-02-26T03:39:01;1.20;99.90
16846;DHT22;8539;53.188;8.696;2024-02-26T03:41:31;1.20;99.90
16846;DHT22;8539;53.188;8.696;2024-02-26T03:43:59;1.20;99.90
16846;DHT22;8539;53.188;8.696;2024-02-26T03:46:26;1.20;99.90
16846;DHT22;8539;53.188;8.696;2024-02-26T03:48:53;1.20;99.90
16846;DHT22;8539;53.188;8.696;2024-02-26T03:51:21;1.20;99.90
16846;DHT22;8539;53.188;8.696;2024-02-26T03:53:48;1.10;99.90
16846;DHT22;8539;53.188;8.696;2024-02-26T03:56:15;1.10;99.90
16846;DHT22;8539;53.188;8.696;2024-02-26T03:58:42;1.10;99.90
16846;DHT22;8539;53.188;8.696;2024-02-26T04:01:09;1.10;99.90
16846;DHT22;8539;53.188;8.696;2024-02-26T04:03:37;1.00;99.90
16846;DHT22;8539;53.188;8.696;2024-02-26T04:06:04;1.00;99.90
16846;DHT22;8539;53.188;8.696;2024-02-26T04:08:31;1.10;99.90
16846;DHT22;8539;53.188;8.696;2024-02-26T04:10:58;1.10;99.90
16846;DHT22;8539;53.188;8.696;2024-02-26T04:13:26;1.10;99.90
16846;DHT22;8539;53.188;8.696;2024-02-26T04:15:53;1.20;99.90
16846;DHT22;8539;53.188;8.696;2024-02-26T04:18:20;1.30;99.90
16846;DHT22;8539;53.188;8.696;2024-02-26T04:20:47;1.30;99.90
16846;DHT22;8539;53.188;8.696;2024-02-26T04:23:14;1.30;99.90
16846;DHT22;8539;53.188;8.696;2024-02-26T04:25:41;1.40;99.90
16846;DHT22;8539;53.188;8.696;2024-02-26T04:28:08;1.40;99.90
16846;DHT22;8539;53.188;8.696;2024-02-26T04:30:36;1.40;99.90
16846;DHT22;8539;53.188;8.696;2024-02-26T04:33:03;1.50;99.90
16846;DHT22;8539;53.188;8.696;2024-02-26T04:35:30;1.50;99.90
16846;DHT22;8539;53.188;8.696;2024-02-26T04:37:58;1.50;99.90
16846;DHT22;8539;53.188;8.696;2024-02-26T04:40:25;1.50;99.90
16846;DHT22;8539;53.188;8.696;2024-02-26T04:42:53;1.50;99.90
16846;DHT22;8539;53.188;8.696;2024-02-26T04:45:20;1.50;99.90
16846;DHT22;8539;53.188;8.696;2024-02-26T04:47:47;1.60;99.90
16846;DHT22;8539;53.188;8.696;2024-02-26T04:50:14;1.60;99.90
16846;DHT22;8539;53.188;8.696;2024-02-26T04:52:42;1.70;99.90
16846;DHT22;8539;53.188;8.696;2024-02-26T04:55:09;1.70;99.90
16846;DHT22;8539;53.188;8.696;2024-02-26T04:57:36;1.70;99.90
16846;DHT22;8539;53.188;8.696;2024-02-26T05:00:04;1.80;99.90
16846;DHT22;8539;53.188;8.696;2024-02-26T05:02:32;1.90;99.90
16846;DHT22;8539;53.188;8.696;2024-02-26T05:05:00;1.90;99.90
16846;DHT22;8539;53.188;8.696;2024-02-26T05:07:27;2.00;99.90
16846;DHT22;8539;53.188;8.696;2024-02-26T05:09:55;2.00;99.90
16846;DHT22;8539;53.188;8.696;2024-02-26T05:12:24;2.00;99.90
16846;DHT22;8539;53.188;8.696;2024-02-26T05:14:52;2.00;99.90
16846;DHT22;8539;53.188;8.696;2024-02-26T05:17:19;2.00;99.90
16846;DHT22;8539;53.188;8.696;2024-02-26T05:19:49;2.00;99.90
16846;DHT22;8539;53.188;8.696;2024-02-26T05:22:16;2.10;99.90
16846;DHT22;8539;53.188;8.696;2024-02-26T05:24:43;2.10;99.90
16846;DHT22;8539;53.188;8.696;2024-02-26T05:27:10;2.10;99.90
16846;DHT22;8539;53.188;8.696;2024-02-26T05:29:38;2.20;99.90
16846;DHT22;8539;53.188;8.696;2024-02-26T05:32:06;2.30;99.90
16846;DHT22;8539;53.188;8.696;2024-02-26T05:34:33;2.20;99.90
16846;DHT22;8539;53.188;8.696;2024-02-26T05:37:01;2.20;99.90
16846;DHT22;8539;53.188;8.696;2024-02-26T05:39:28;2.20;99.90
16846;DHT22;8539;53.188;8.696;2024-02-26T05:41:55;2.20;99.90
16846;DHT22;8539;53.188;8.696;2024-02-26T05:44:23;2.20;99.90
16846;DHT22;8539;53.188;8.696;2024-02-26T05:46:52;2.20;99.90
16846;DHT22;8539;53.188;8.696;2024-02-26T05:49:20;2.30;99.90
16846;DHT22;8539;53.188;8.696;2024-02-26T05:51:48;2.30;99.90
16846;DHT22;8539;53.188;8.696;2024-02-26T05:54:15;2.30;99.90
16846;DHT22;8539;53.188;8.696;2024-02-26T05:56:43;2.30;99.90
16846;DHT22;8539;53.188;8.696;2024-02-26T05:59:10;2.30;99.90
16846;DHT22;8539;53.188;8.696;2024-02-26T06:01:37;2.30;99.90
16846;DHT22;8539;53.188;8.696;2024-02-26T06:04:04;2.30;99.90
16846;DHT22;8539;53.188;8.696;2024-02-26T06:06:31;2.30;99.90
16846;DHT22;8539;53.188;8.696;2024-02-26T06:08:59;2.30;99.90
16846;DHT22;8539;53.188;8.696;2024-02-26T06:11:26;2.30;99.90
16846;DHT22;8539;53.188;8.696;2024-02-26T06:13:54;2.30;99.90
16846;DHT22;8539;53.188;8.696;2024-02-26T06:16:21;2.30;99.90
16846;DHT22;8539;53.188;8.696;2024-02-26T06:18:48;2.40;99.90
16846;DHT22;8539;53.188;8.696;2024-02-26T06:21:16;2.40;99.90
16846;DHT22;8539;53.188;8.696;2024-02-26T06:23:43;2.40;99.90
16846;DHT22;8539;53.188;8.696;2024-02-26T06:26:10;2.40;99.90
16846;DHT22;8539;53.188;8.696;2024-02-26T06:28:37;2.40;99.90
16846;DHT22;8539;53.188;8.696;2024-02-26T06:31:07;2.50;99.90
16846;DHT22;8539;53.188;8.696;2024-02-26T06:33:34;2.50;99.90
16846;DHT22;8539;53.188;8.696;2024-02-26T06:36:02;2.50;99.90
16846;DHT22;8539;53.188;8.696;2024-02-26T06:38:29;2.50;99.90
16846;DHT22;8539;53.188;8.696;2024-02-26T06:40:56;2.60;99.90
16846;DHT22;8539;53.188;8.696;2024-02-26T06:43:24;2.50;99.90
16846;DHT22;8539;53.188;8.696;2024-02-26T06:45:51;2.50;99.90
16846;DHT22;8539;53.188;8.696;2024-02-26T06:48:18;2.50;99.90
16846;DHT22;8539;53.188;8.696;2024-02-26T06:50:45;2.50;99.90
16846;DHT22;8539;53.188;8.696;2024-02-26T06:53:12;2.50;99.90
16846;DHT22;8539;53.188;8.696;2024-02-26T06:55:39;2.50;99.90
16846;DHT22;8539;53.188;8.696;2024-02-26T06:58:08;2.50;99.90
16846;DHT22;8539;53.188;8.696;2024-02-26T07:00:35;2.50;99.90
16846;DHT22;8539;53.188;8.696;2024-02-26T07:03:04;2.60;99.90
16846;DHT22;8539;53.188;8.696;2024-02-26T07:05:32;2.50;99.90
16846;DHT22;8539;53.188;8.696;2024-02-26T07:07:59;2.50;99.90
16846;DHT22;8539;53.188;8.696;2024-02-26T07:10:26;2.50;99.90
16846;DHT22;8539;53.188;8.696;2024-02-26T07:12:53;2.50;99.90
16846;DHT22;8539;53.188;8.696;2024-02-26T07:15:20;2.50;99.90
16846;DHT22;8539;53.188;8.696;2024-02-26T07:17:48;2.60;99.90
16846;DHT22;8539;53.188;8.696;2024-02-26T07:20:16;2.60;99.90
16846;DHT22;8539;53.188;8.696;2024-02-26T07:22:45;2.60;99.90
16846;DHT22;8539;53.188;8.696;2024-02-26T07:25:12;2.60;99.90
16846;DHT22;8539;53.188;8.696;2024-02-26T07:27:40;2.70;99.90
16846;DHT22;8539;53.188;8.696;2024-02-26T07:30:08;2.70;99.90
16846;DHT22;8539;53.188;8.696;2024-02-26T07:32:36;2.80;99.90
16846;DHT22;8539;53.188;8.696;2024-02-26T07:35:03;2.80;99.90
16846;DHT22;8539;53.188;8.696;2024-02-26T07:37:32;2.80;99.90
16846;DHT22;8539;53.188;8.696;2024-02-26T07:39:59;2.90;99.90
16846;DHT22;8539;53.188;8.696;2024-02-26T07:42:26;2.90;99.90
16846;DHT22;8539;53.188;8.696;2024-02-26T07:44:53;2.90;99.90
16846;DHT22;8539;53.188;8.696;2024-02-26T07:47:21;3.00;99.90
16846;DHT22;8539;53.188;8.696;2024-02-26T07:49:49;3.00;99.90
16846;DHT22;8539;53.188;8.696;2024-02-26T07:52:16;3.10;99.90
16846;DHT22;8539;53.188;8.696;2024-02-26T07:54:43;3.10;99.90
16846;DHT22;8539;53.188;8.696;2024-02-26T07:57:10;3.10;99.90
16846;DHT22;8539;53.188;8.696;2024-02-26T07:59:37;3.10;99.90
16846;DHT22;8539;53.188;8.696;2024-02-26T08:02:07;3.20;99.90
16846;DHT22;8539;53.188;8.696;2024-02-26T08:04:34;3.20;99.90
16846;DHT22;8539;53.188;8.696;2024-02-26T08:07:01;3.30;99.90
16846;DHT22;8539;53.188;8.696;2024-02-26T08:09:30;3.20;99.90
16846;DHT22;8539;53.188;8.696;2024-02-26T08:11:57;3.20;99.90
16846;DHT22;8539;53.188;8.696;2024-02-26T08:14:26;3.30;99.90
16846;DHT22;8539;53.188;8.696;2024-02-26T08:16:53;3.30;99.90
16846;DHT22;8539;53.188;8.696;2024-02-26T08:19:20;3.30;99.90
16846;DHT22;8539;53.188;8.696;2024-02-26T08:21:47;3.30;99.90
16846;DHT22;8539;53.188;8.696;2024-02-26T08:24:14;3.40;99.90
16846;DHT22;8539;53.188;8.696;2024-02-26T08:26:41;3.40;99.90
16846;DHT22;8539;53.188;8.696;2024-02-26T08:29:09;3.50;99.90
16846;DHT22;8539;53.188;8.696;2024-02-26T08:31:36;3.50;99.90
16846;DHT22;8539;53.188;8.696;2024-02-26T08:34:04;3.50;99.90
16846;DHT22;8539;53.188;8.696;2024-02-26T08:36:33;3.60;99.90
16846;DHT22;8539;53.188;8.696;2024-02-26T08:39:01;3.60;99.90
16846;DHT22;8539;53.188;8.696;2024-02-26T08:41:28;3.60;99.90
16846;DHT22;8539;53.188;8.696;2024-02-26T08:43:56;3.60;99.90
16846;DHT22;8539;53.188;8.696;2024-02-26T08:46:23;3.70;99.90
16846;DHT22;8539;53.188;8.696;2024-02-26T08:48:50;3.70;99.90
16846;DHT22;8539;53.188;8.696;2024-02-26T08:51:17;3.70;99.90
16846;DHT22;8539;53.188;8.696;2024-02-26T08:53:44;3.90;99.90
16846;DHT22;8539;53.188;8.696;2024-02-26T08:56:11;3.90;99.90
16846;DHT22;8539;53.188;8.696;2024-02-26T08:58:45;3.90;99.90
16846;DHT22;8539;53.188;8.696;2024-02-26T09:01:13;3.90;99.90
16846;DHT22;8539;53.188;8.696;2024-02-26T09:03:40;4.00;99.90
16846;DHT22;8539;53.188;8.696;2024-02-26T09:06:08;3.90;99.90
16846;DHT22;8539;53.188;8.696;2024-02-26T09:08:35;4.00;99.90
16846;DHT22;8539;53.188;8.696;2024-02-26T09:11:04;4.00;99.90
16846;DHT22;8539;53.188;8.696;2024-02-26T09:13:31;4.10;99.90
16846;DHT22;8539;53.188;8.696;2024-02-26T09:15:58;4.10;99.90
16846;DHT22;8539;53.188;8.696;2024-02-26T09:18:26;4.10;99.90
16846;DHT22;8539;53.188;8.696;2024-02-26T09:20:55;4.20;99.90
16846;DHT22;8539;53.188;8.696;2024-02-26T09:23:22;4.40;99.90
16846;DHT22;8539;53.188;8.696;2024-02-26T09:25:49;4.30;99.90
16846;DHT22;8539;53.188;8.696;2024-02-26T09:28:17;4.30;99.90
16846;DHT22;8539;53.188;8.696;2024-02-26T09:30:44;4.30;99.90
16846;DHT22;8539;53.188;8.696;2024-02-26T09:33:13;4.40;99.90
16846;DHT22;8539;53.188;8.696;2024-02-26T09:35:40;4.50;99.90
16846;DHT22;8539;53.188;8.696;2024-02-26T09:38:08;4.50;99.90
16846;DHT22;8539;53.188;8.696;2024-02-26T09:40:40;4.50;99.90
16846;DHT22;8539;53.188;8.696;2024-02-26T09:43:10;4.60;99.90
16846;DHT22;8539;53.188;8.696;2024-02-26T09:45:41;4.60;99.90
16846;DHT22;8539;53.188;8.696;2024-02-26T09:48:10;4.70;99.90
16846;DHT22;8539;53.188;8.696;2024-02-26T09:50:38;4.80;99.90
16846;DHT22;8539;53.188;8.696;2024-02-26T09:53:08;4.80;99.90
16846;DHT22;8539;53.188;8.696;2024-02-26T09:55:37;4.90;99.90
16846;DHT22;8539;53.188;8.696;2024-02-26T09:58:08;5.00;99.90
16846;DHT22;8539;53.188;8.696;2024-02-26T10:00:38;5.10;99.90
16846;DHT22;8539;53.188;8.696;2024-02-26T10:03:09;5.10;99.90
16846;DHT22;8539;53.188;8.696;2024-02-26T10:05:38;5.30;99.90
16846;DHT22;8539;53.188;8.696;2024-02-26T10:08:08;5.30;99.90
16846;DHT22;8539;53.188;8.696;2024-02-26T10:10:36;5.40;99.90
16846;DHT22;8539;53.188;8.696;2024-02-26T10:13:04;5.40;99.90
16846;DHT22;8539;53.188;8.696;2024-02-26T10:15:37;5.50;99.90
16846;DHT22;8539;53.188;8.696;2024-02-26T10:18:05;5.70;99.90
16846;DHT22;8539;53.188;8.696;2024-02-26T10:20:33;5.80;99.90
16846;DHT22;8539;53.188;8.696;2024-02-26T10:23:04;5.90;99.90
16846;DHT22;8539;53.188;8.696;2024-02-26T10:25:32;6.00;99.90
16846;DHT22;8539;53.188;8.696;2024-02-26T10:28:00;6.00;99.90
16846;DHT22;8539;53.188;8.696;2024-02-26T10:30:31;6.00;99.90
16846;DHT22;8539;53.188;8.696;2024-02-26T10:32:59;6.00;99.90
16846;DHT22;8539;53.188;8.696;2024-02-26T10:35:26;6.10;99.90
16846;DHT22;8539;53.188;8.696;2024-02-26T10:37:56;6.30;99.90
16846;DHT22;8539;53.188;8.696;2024-02-26T10:40:23;6.50;99.90
16846;DHT22;8539;53.188;8.696;2024-02-26T10:42:50;6.50;99.90
16846;DHT22;8539;53.188;8.696;2024-02-26T10:45:17;6.40;99.90
16846;DHT22;8539;53.188;8.696;2024-02-26T10:47:45;6.50;99.90
16846;DHT22;8539;53.188;8.696;2024-02-26T10:50:13;6.60;99.90
16846;DHT22;8539;53.188;8.696;2024-02-26T10:52:42;6.70;99.90
16846;DHT22;8539;53.188;8.696;2024-02-26T10:55:15;6.80;99.90
16846;DHT22;8539;53.188;8.696;2024-02-26T10:57:43;6.80;99.90
16846;DHT22;8539;53.188;8.696;2024-02-26T11:00:15;6.90;99.90
16846;DHT22;8539;53.188;8.696;2024-02-26T11:02:45;6.80;99.90
16846;DHT22;8539;53.188;8.696;2024-02-26T11:05:14;6.80;99.90
16846;DHT22;8539;53.188;8.696;2024-02-26T11:07:42;6.70;99.90
16846;DHT22;8539;53.188;8.696;2024-02-26T11:10:11;6.70;99.90
16846;DHT22;8539;53.188;8.696;2024-02-26T11:12:39;6.70;99.90
16846;DHT22;8539;53.188;8.696;2024-02-26T11:15:08;6.80;99.90
16846;DHT22;8539;53.188;8.696;2024-02-26T11:17:36;6.70;99.90
16846;DHT22;8539;53.188;8.696;2024-02-26T11:20:09;6.80;99.90
16846;DHT22;8539;53.188;8.696;2024-02-26T11:22:38;6.90;99.90
16846;DHT22;8539;53.188;8.696;2024-02-26T11:25:07;7.00;99.90
16846;DHT22;8539;53.188;8.696;2024-02-26T11:27:41;7.10;99.90
16846;DHT22;8539;53.188;8.696;2024-02-26T11:30:10;7.10;99.90
16846;DHT22;8539;53.188;8.696;2024-02-26T11:32:44;7.10;99.90
16846;DHT22;8539;53.188;8.696;2024-02-26T11:35:13;7.10;99.90
16846;DHT22;8539;53.188;8.696;2024-02-26T11:37:54;7.20;99.90
16846;DHT22;8539;53.188;8.696;2024-02-26T11:40:25;7.10;99.90
16846;DHT22;8539;53.188;8.696;2024-02-26T11:42:53;7.00;99.90
16846;DHT22;8539;53.188;8.696;2024-02-26T11:48:17;7.10;99.90
16846;DHT22;8539;53.188;8.696;2024-02-26T11:50:54;7.10;99.90
16846;DHT22;8539;53.188;8.696;2024-02-26T11:53:30;7.10;99.90
16846;DHT22;8539;53.188;8.696;2024-02-26T11:58:44;7.20;99.90
16846;DHT22;8539;53.188;8.696;2024-02-26T12:04:25;7.20;99.90
16846;DHT22;8539;53.188;8.696;2024-02-26T12:06:57;7.30;99.90
16846;DHT22;8539;53.188;8.696;2024-02-26T12:09:38;7.30;99.90
16846;DHT22;8539;53.188;8.696;2024-02-26T12:12:07;7.30;99.90
16846;DHT22;8539;53.188;8.696;2024-02-26T12:14:56;7.40;99.90
16846;DHT22;8539;53.188;8.696;2024-02-26T12:17:25;7.40;99.90
16846;DHT22;8539;53.188;8.696;2024-02-26T12:19:52;7.50;99.90
16846;DHT22;8539;53.188;8.696;2024-02-26T12:22:21;7.60;99.90
16846;DHT22;8539;53.188;8.696;2024-02-26T12:24:58;7.70;99.90
16846;DHT22;8539;53.188;8.696;2024-02-26T12:27:26;7.80;99.90
16846;DHT22;8539;53.188;8.696;2024-02-26T12:29:53;7.90;99.90
16846;DHT22;8539;53.188;8.696;2024-02-26T12:32:20;8.00;99.90
16846;DHT22;8539;53.188;8.696;2024-02-26T12:34:47;8.10;99.90
16846;DHT22;8539;53.188;8.696;2024-02-26T12:37:16;8.20;99.90
16846;DHT22;8539;53.188;8.696;2024-02-26T12:39:44;8.30;99.90
16846;DHT22;8539;53.188;8.696;2024-02-26T12:42:12;8.30;99.90
16846;DHT22;8539;53.188;8.696;2024-02-26T12:44:41;8.30;99.90
16846;DHT22;8539;53.188;8.696;2024-02-26T12:47:08;8.40;99.90
16846;DHT22;8539;53.188;8.696;2024-02-26T12:49:37;8.40;99.90
16846;DHT22;8539;53.188;8.696;2024-02-26T12:52:05;8.40;99.90
16846;DHT22;8539;53.188;8.696;2024-02-26T12:54:33;8.50;99.90
16846;DHT22;8539;53.188;8.696;2024-02-26T12:57:03;8.50;99.90
16846;DHT22;8539;53.188;8.696;2024-02-26T12:59:31;8.50;99.90
16846;DHT22;8539;53.188;8.696;2024-02-26T13:01:59;8.60;99.90
16846;DHT22;8539;53.188;8.696;2024-02-26T13:04:29;8.50;99.90
16846;DHT22;8539;53.188;8.696;2024-02-26T13:06:56;8.50;99.90
16846;DHT22;8539;53.188;8.696;2024-02-26T13:09:32;8.50;99.90
16846;DHT22;8539;53.188;8.696;2024-02-26T13:12:04;8.50;99.90
16846;DHT22;8539;53.188;8.696;2024-02-26T13:14:32;8.50;99.90
16846;DHT22;8539;53.188;8.696;2024-02-26T13:17:01;8.40;99.90
16846;DHT22;8539;53.188;8.696;2024-02-26T13:19:29;8.50;99.90
16846;DHT22;8539;53.188;8.696;2024-02-26T13:21:56;8.50;99.90
16846;DHT22;8539;53.188;8.696;2024-02-26T13:24:30;8.60;99.90
16846;DHT22;8539;53.188;8.696;2024-02-26T13:26:58;8.60;99.90
16846;DHT22;8539;53.188;8.696;2024-02-26T13:29:25;8.60;99.90
16846;DHT22;8539;53.188;8.696;2024-02-26T13:31:57;8.60;99.90
16846;DHT22;8539;53.188;8.696;2024-02-26T13:34:29;8.50;99.90
16846;DHT22;8539;53.188;8.696;2024-02-26T13:36:57;8.50;99.90
16846;DHT22;8539;53.188;8.696;2024-02-26T13:39:26;8.40;99.90
16846;DHT22;8539;53.188;8.696;2024-02-26T13:41:54;8.40;99.90
16846;DHT22;8539;53.188;8.696;2024-02-26T13:44:22;8.40;99.90
16846;DHT22;8539;53.188;8.696;2024-02-26T13:46:50;8.30;99.90
16846;DHT22;8539;53.188;8.696;2024-02-26T13:49:17;8.30;99.90
16846;DHT22;8539;53.188;8.696;2024-02-26T13:51:47;8.20;99.90
16846;DHT22;8539;53.188;8.696;2024-02-26T13:54:14;8.10;99.90
16846;DHT22;8539;53.188;8.696;2024-02-26T13:56:42;8.10;99.90
16846;DHT22;8539;53.188;8.696;2024-02-26T13:59:13;8.00;99.90
16846;DHT22;8539;53.188;8.696;2024-02-26T14:01:40;7.90;99.90
16846;DHT22;8539;53.188;8.696;2024-02-26T14:04:07;7.90;99.90
16846;DHT22;8539;53.188;8.696;2024-02-26T14:06:36;7.80;99.90
16846;DHT22;8539;53.188;8.696;2024-02-26T14:09:04;7.70;99.90
16846;DHT22;8539;53.188;8.696;2024-02-26T14:11:31;7.70;99.90
16846;DHT22;8539;53.188;8.696;2024-02-26T14:13:59;7.70;99.90
16846;DHT22;8539;53.188;8.696;2024-02-26T14:16:26;7.70;99.90
16846;DHT22;8539;53.188;8.696;2024-02-26T14:18:57;7.70;99.90
16846;DHT22;8539;53.188;8.696;2024-02-26T14:21:24;7.70;99.90
16846;DHT22;8539;53.188;8.696;2024-02-26T14:23:51;7.70;99.90
16846;DHT22;8539;53.188;8.696;2024-02-26T14:26:19;7.70;99.90
16846;DHT22;8539;53.188;8.696;2024-02-26T14:28:46;7.70;99.90
16846;DHT22;8539;53.188;8.696;2024-02-26T14:31:17;7.60;99.90
16846;DHT22;8539;53.188;8.696;2024-02-26T14:33:44;7.60;99.90
16846;DHT22;8539;53.188;8.696;2024-02-26T14:36:12;7.50;99.90
16846;DHT22;8539;53.188;8.696;2024-02-26T14:38:39;7.50;99.90
16846;DHT22;8539;53.188;8.696;2024-02-26T14:41:06;7.50;99.90
16846;DHT22;8539;53.188;8.696;2024-02-26T14:43:33;7.40;99.90
16846;DHT22;8539;53.188;8.696;2024-02-26T14:46:02;7.30;99.90
16846;DHT22;8539;53.188;8.696;2024-02-26T14:48:30;7.30;99.90
16846;DHT22;8539;53.188;8.696;2024-02-26T14:50:58;7.20;99.90
16846;DHT22;8539;53.188;8.696;2024-02-26T14:53:26;7.10;99.90
16846;DHT22;8539;53.188;8.696;2024-02-26T14:55:53;7.10;99.90
16846;DHT22;8539;53.188;8.696;2024-02-26T14:58:20;7.10;99.90
16846;DHT22;8539;53.188;8.696;2024-02-26T15:00:48;7.00;99.90
16846;DHT22;8539;53.188;8.696;2024-02-26T15:03:16;7.10;99.90
16846;DHT22;8539;53.188;8.696;2024-02-26T15:05:44;7.00;99.90
16846;DHT22;8539;53.188;8.696;2024-02-26T15:08:11;7.00;99.90
16846;DHT22;8539;53.188;8.696;2024-02-26T15:10:42;7.00;99.90
16846;DHT22;8539;53.188;8.696;2024-02-26T15:13:15;6.90;99.90
16846;DHT22;8539;53.188;8.696;2024-02-26T15:15:42;6.90;99.90
16846;DHT22;8539;53.188;8.696;2024-02-26T15:18:09;6.90;99.90
16846;DHT22;8539;53.188;8.696;2024-02-26T15:20:38;6.90;99.90
16846;DHT22;8539;53.188;8.696;2024-02-26T15:23:06;6.90;99.90
16846;DHT22;8539;53.188;8.696;2024-02-26T15:25:33;6.90;99.90
16846;DHT22;8539;53.188;8.696;2024-02-26T15:28:00;6.80;99.90
16846;DHT22;8539;53.188;8.696;2024-02-26T15:30:27;6.90;99.90
16846;DHT22;8539;53.188;8.696;2024-02-26T15:32:56;6.80;99.90
16846;DHT22;8539;53.188;8.696;2024-02-26T15:35:23;6.80;99.90
16846;DHT22;8539;53.188;8.696;2024-02-26T15:37:50;6.80;99.90
16846;DHT22;8539;53.188;8.696;2024-02-26T15:40:18;6.80;99.90
16846;DHT22;8539;53.188;8.696;2024-02-26T15:42:46;6.80;99.90
16846;DHT22;8539;53.188;8.696;2024-02-26T15:45:13;6.80;99.90
16846;DHT22;8539;53.188;8.696;2024-02-26T15:47:41;6.80;99.90
16846;DHT22;8539;53.188;8.696;2024-02-26T15:50:09;6.80;99.90
16846;DHT22;8539;53.188;8.696;2024-02-26T15:52:40;6.70;99.90
16846;DHT22;8539;53.188;8.696;2024-02-26T15:55:07;6.60;99.90
16846;DHT22;8539;53.188;8.696;2024-02-26T15:57:41;6.50;99.90
16846;DHT22;8539;53.188;8.696;2024-02-26T16:00:09;6.50;99.90
16846;DHT22;8539;53.188;8.696;2024-02-26T16:02:37;6.40;99.90
16846;DHT22;8539;53.188;8.696;2024-02-26T16:05:07;6.40;99.90
16846;DHT22;8539;53.188;8.696;2024-02-26T16:07:47;6.30;99.90
16846;DHT22;8539;53.188;8.696;2024-02-26T16:10:17;6.30;99.90
16846;DHT22;8539;53.188;8.696;2024-02-26T16:12:51;6.20;99.90
16846;DHT22;8539;53.188;8.696;2024-02-26T16:15:19;6.20;99.90
16846;DHT22;8539;53.188;8.696;2024-02-26T16:17:50;6.20;99.90